sensor_id;sensor_type;location;lat;lon;timestamp;pressure;altitude;pressure_sealevel;temperature;humidity
46007;BME280;31738;50.188;8.524;2023-03-18T00:01:24;98404.97;;;11.70;71.12
46007;BME280;31738;50.188;8.524;2023-03-18T00:03:50;98402.81;;;11.72;71.52
46007;BME280;31738;50.188;8.524;2023-03-18T00:06:17;98418.13;;;11.71;71.01
46007;BME280;31738;50.188;8.524;2023-03-18T00:08:45;98418.94;;;11.72;71.57
46007;BME280;31738;50.188;8.524;2023-03-18T00:11:13;98417.34;;;11.71;72.13
46007;BME280;31738;50.188;8.524;2023-03-18T00:13:40;98416.25;;;11.72;72.32
46007;BME280;31738;50.188;8.524;2023-03-18T00:16:08;98412.75;;;11.71;72.67
46007;BME280;31738;50.188;8.524;2023-03-18T00:18:36;98413.84;;;11.70;72.68
46007;BME280;31738;50.188;8.524;2023-03-18T00:21:02;98413.84;;;11.70;72.86
46007;BME280;31738;50.188;8.524;2023-03-18T00:23:28;98417.63;;;11.69;72.96
46007;BME280;31738;50.188;8.524;2023-03-18T00:25:55;98418.69;;;11.68;73.70
46007;BME280;31738;50.188;8.524;2023-03-18T00:28:22;98417.41;;;11.66;73.74
46007;BME280;31738;50.188;8.524;2023-03-18T00:30:48;98424.66;;;11.65;73.62
46007;BME280;31738;50.188;8.524;2023-03-18T00:33:15;98422.25;;;11.64;73.94
46007;BME280;31738;50.188;8.524;2023-03-18T00:35:41;98416.09;;;11.63;74.59
46007;BME280;31738;50.188;8.524;2023-03-18T00:38:07;98410.19;;;11.61;74.90
46007;BME280;31738;50.188;8.524;2023-03-18T00:40:35;98432.72;;;11.60;75.19
46007;BME280;31738;50.188;8.524;2023-03-18T00:43:22;98424.75;;;11.55;76.19
46007;BME280;31738;50.188;8.524;2023-03-18T00:45:54;98408.69;;;11.50;76.84
46007;BME280;31738;50.188;8.524;2023-03-18T00:48:22;98406.59;;;11.47;77.33
46007;BME280;31738;50.188;8.524;2023-03-18T00:50:48;98405.00;;;11.46;77.65
46007;BME280;31738;50.188;8.524;2023-03-18T00:53:15;98387.84;;;11.42;78.11
46007;BME280;31738;50.188;8.524;2023-03-18T00:55:41;98388.34;;;11.44;78.62
46007;BME280;31738;50.188;8.524;2023-03-18T00:58:08;98377.09;;;11.42;79.04
46007;BME280;31738;50.188;8.524;2023-03-18T01:00:36;98369.13;;;11.37;79.71
46007;BME280;31738;50.188;8.524;2023-03-18T01:03:02;98380.69;;;11.33;79.76
46007;BME280;31738;50.188;8.524;2023-03-18T01:05:32;98382.06;;;11.30;80.43
46007;BME280;31738;50.188;8.524;2023-03-18T01:07:58;98384.53;;;11.27;80.81
46007;BME280;31738;50.188;8.524;2023-03-18T01:10:24;98374.59;;;11.27;81.12
46007;BME280;31738;50.188;8.524;2023-03-18T01:12:52;98368.69;;;11.25;81.41
46007;BME280;31738;50.188;8.524;2023-03-18T01:15:19;98367.94;;;11.25;81.64
46007;BME280;31738;50.188;8.524;2023-03-18T01:17:46;98366.59;;;11.22;81.90
46007;BME280;31738;50.188;8.524;2023-03-18T01:20:14;98356.94;;;11.21;82.48
46007;BME280;31738;50.188;8.524;2023-03-18T01:22:42;98353.25;;;11.17;82.75
46007;BME280;31738;50.188;8.524;2023-03-18T01:25:11;98357.00;;;11.16;83.32
46007;BME280;31738;50.188;8.524;2023-03-18T01:27:37;98349.53;;;11.13;83.19
46007;BME280;31738;50.188;8.524;2023-03-18T01:30:04;98351.72;;;11.11;83.75
46007;BME280;31738;50.188;8.524;2023-03-18T01:32:30;98359.75;;;11.11;84.24
46007;BME280;31738;50.188;8.524;2023-03-18T01:34:56;98349.59;;;11.08;84.05
46007;BME280;31738;50.188;8.524;2023-03-18T01:37:23;98350.38;;;11.09;84.26
46007;BME280;31738;50.188;8.524;2023-03-18T01:39:59;98350.66;;;11.07;84.64
46007;BME280;31738;50.188;8.524;2023-03-18T01:42:25;98350.66;;;11.07;85.06
46007;BME280;31738;50.188;8.524;2023-03-18T01:47:38;98344.28;;;11.03;85.12
46007;BME280;31738;50.188;8.524;2023-03-18T01:50:04;98348.56;;;11.04;85.06
46007;BME280;31738;50.188;8.524;2023-03-18T01:52:30;98344.78;;;11.05;85.62
46007;BME280;31738;50.188;8.524;2023-03-18T01:55:03;98346.69;;;11.05;85.65
46007;BME280;31738;50.188;8.524;2023-03-18T01:57:30;98350.44;;;11.04;85.83
46007;BME280;31738;50.188;8.524;2023-03-18T01:59:57;98338.63;;;11.05;85.63
46007;BME280;31738;50.188;8.524;2023-03-18T02:02:24;98332.44;;;11.04;85.96
46007;BME280;31738;50.188;8.524;2023-03-18T02:04:52;98327.09;;;11.04;86.21
46007;BME280;31738;50.188;8.524;2023-03-18T02:07:26;98328.66;;;11.05;86.21
46007;BME280;31738;50.188;8.524;2023-03-18T02:09:54;98321.72;;;11.04;86.46
46007;BME280;31738;50.188;8.524;2023-03-18T02:12:26;98331.34;;;11.05;86.69
46007;BME280;31738;50.188;8.524;2023-03-18T02:14:57;98321.72;;;11.04;86.92
46007;BME280;31738;50.188;8.524;2023-03-18T02:17:30;98314.19;;;11.06;87.15
46007;BME280;31738;50.188;8.524;2023-03-18T02:20:16;98308.25;;;11.09;87.02
46007;BME280;31738;50.188;8.524;2023-03-18T02:22:50;98311.22;;;11.08;87.46
46007;BME280;31738;50.188;8.524;2023-03-18T02:25:24;98302.88;;;11.09;87.66
46007;BME280;31738;50.188;8.524;2023-03-18T02:28:01;98303.69;;;11.10;87.55
46007;BME280;31738;50.188;8.524;2023-03-18T02:30:34;98312.50;;;11.10;87.74
46007;BME280;31738;50.188;8.524;2023-03-18T02:33:03;98306.09;;;11.11;87.81
46007;BME280;31738;50.188;8.524;2023-03-18T02:35:30;98312.22;;;11.12;88.14
46007;BME280;31738;50.188;8.524;2023-03-18T02:37:59;98317.59;;;11.12;88.26
46007;BME280;31738;50.188;8.524;2023-03-18T02:40:40;98319.22;;;11.13;88.30
46007;BME280;31738;50.188;8.524;2023-03-18T02:43:26;98323.25;;;11.10;88.37
46007;BME280;31738;50.188;8.524;2023-03-18T02:48:41;98329.72;;;11.09;88.75
46007;BME280;31738;50.188;8.524;2023-03-18T02:51:09;98319.50;;;11.11;88.85
46007;BME280;31738;50.188;8.524;2023-03-18T02:53:35;98319.22;;;11.13;88.84
46007;BME280;31738;50.188;8.524;2023-03-18T02:56:01;98320.53;;;11.15;89.20
46007;BME280;31738;50.188;8.524;2023-03-18T03:02:32;98315.34;;;11.00;89.13
46007;BME280;31738;50.188;8.524;2023-03-18T03:04:58;98320.13;;;11.03;89.16
46007;BME280;31738;50.188;8.524;2023-03-18T03:07:27;98321.19;;;11.02;89.88
46007;BME280;31738;50.188;8.524;2023-03-18T03:09:53;98332.78;;;10.98;89.94
46007;BME280;31738;50.188;8.524;2023-03-18T03:12:19;98340.56;;;10.99;89.86
46007;BME280;31738;50.188;8.524;2023-03-18T03:14:49;98336.81;;;11.00;89.94
46007;BME280;31738;50.188;8.524;2023-03-18T03:17:15;98339.97;;;11.02;89.73
46007;BME280;31738;50.188;8.524;2023-03-18T03:19:43;98341.06;;;11.01;89.50
46007;BME280;31738;50.188;8.524;2023-03-18T03:22:09;98342.16;;;11.00;89.59
46007;BME280;31738;50.188;8.524;2023-03-18T03:24:34;98344.84;;;11.00;89.41
46007;BME280;31738;50.188;8.524;2023-03-18T03:27:00;98342.75;;;10.97;89.58
46007;BME280;31738;50.188;8.524;2023-03-18T03:29:26;98352.66;;;10.97;89.40
46007;BME280;31738;50.188;8.524;2023-03-18T03:31:51;98357.22;;;10.96;89.51
46007;BME280;31738;50.188;8.524;2023-03-18T03:34:17;98350.56;;;10.94;89.50
46007;BME280;31738;50.188;8.524;2023-03-18T03:36:42;98352.41;;;10.93;89.56
46007;BME280;31738;50.188;8.524;2023-03-18T03:39:08;98350.84;;;10.92;89.63
46007;BME280;31738;50.188;8.524;2023-03-18T03:41:34;98351.66;;;10.93;89.81
46007;BME280;31738;50.188;8.524;2023-03-18T03:44:00;98356.19;;;10.92;90.02
46007;BME280;31738;50.188;8.524;2023-03-18T03:46:25;98356.19;;;10.92;90.03
46007;BME280;31738;50.188;8.524;2023-03-18T03:48:52;98359.41;;;10.94;90.23
46007;BME280;31738;50.188;8.524;2023-03-18T03:51:17;98357.22;;;10.96;90.42
46007;BME280;31738;50.188;8.524;2023-03-18T03:53:43;98364.22;;;10.97;90.50
46007;BME280;31738;50.188;8.524;2023-03-18T03:56:10;98352.09;;;11.00;90.64
46007;BME280;31738;50.188;8.524;2023-03-18T03:58:36;98358.28;;;11.00;90.74
46007;BME280;31738;50.188;8.524;2023-03-18T04:01:03;98347.53;;;11.00;90.76
46007;BME280;31738;50.188;8.524;2023-03-18T04:03:30;98351.84;;;10.96;91.24
46007;BME280;31738;50.188;8.524;2023-03-18T04:05:56;98345.47;;;10.92;90.98
46007;BME280;31738;50.188;8.524;2023-03-18T04:08:24;98350.59;;;10.89;91.13
46007;BME280;31738;50.188;8.524;2023-03-18T04:10:50;98348.75;;;10.84;90.93
46007;BME280;31738;50.188;8.524;2023-03-18T04:13:16;98359.78;;;10.83;90.95
46007;BME280;31738;50.188;8.524;2023-03-18T04:15:41;98359.53;;;10.79;91.06
46007;BME280;31738;50.188;8.524;2023-03-18T04:18:11;98358.53;;;10.75;90.76
46007;BME280;31738;50.188;8.524;2023-03-18T04:20:37;98364.44;;;10.72;90.94
46007;BME280;31738;50.188;8.524;2023-03-18T04:23:09;98359.69;;;10.64;90.77
46007;BME280;31738;50.188;8.524;2023-03-18T04:25:35;98355.69;;;10.62;90.67
46007;BME280;31738;50.188;8.524;2023-03-18T04:28:02;98353.31;;;10.60;90.87
46007;BME280;31738;50.188;8.524;2023-03-18T04:30:28;98351.72;;;10.59;90.72
46007;BME280;31738;50.188;8.524;2023-03-18T04:33:08;98360.31;;;10.56;90.63
46007;BME280;31738;50.188;8.524;2023-03-18T04:35:34;98366.19;;;10.58;90.28
46007;BME280;31738;50.188;8.524;2023-03-18T04:38:00;98364.59;;;10.57;90.61
46007;BME280;31738;50.188;8.524;2023-03-18T04:40:26;98371.28;;;10.60;90.70
46007;BME280;31738;50.188;8.524;2023-03-18T04:42:51;98367.81;;;10.59;90.35
46007;BME280;31738;50.188;8.524;2023-03-18T04:45:22;98370.50;;;10.59;90.95
46007;BME280;31738;50.188;8.524;2023-03-18T04:47:48;98363.50;;;10.58;90.60
46007;BME280;31738;50.188;8.524;2023-03-18T04:50:15;98367.81;;;10.59;90.53
46007;BME280;31738;50.188;8.524;2023-03-18T04:52:42;98368.59;;;10.60;90.64
46007;BME280;31738;50.188;8.524;2023-03-18T04:55:12;98371.56;;;10.58;90.97
46007;BME280;31738;50.188;8.524;2023-03-18T04:57:40;98374.22;;;10.58;90.70
46007;BME280;31738;50.188;8.524;2023-03-18T05:00:11;98371.56;;;10.58;90.67
46007;BME280;31738;50.188;8.524;2023-03-18T05:02:39;98380.69;;;10.57;90.76
46007;BME280;31738;50.188;8.524;2023-03-18T05:05:06;98382.28;;;10.58;90.54
46007;BME280;31738;50.188;8.524;2023-03-18T05:07:37;98377.47;;;10.55;90.59
46007;BME280;31738;50.188;8.524;2023-03-18T05:10:09;98381.25;;;10.54;90.54
46007;BME280;31738;50.188;8.524;2023-03-18T05:12:35;98388.22;;;10.55;90.64
46007;BME280;31738;50.188;8.524;2023-03-18T05:15:03;98392.50;;;10.56;91.07
46007;BME280;31738;50.188;8.524;2023-03-18T05:17:28;98391.97;;;10.54;90.81
46007;BME280;31738;50.188;8.524;2023-03-18T05:19:58;98385.00;;;10.53;90.81
46007;BME280;31738;50.188;8.524;2023-03-18T05:22:24;98382.84;;;10.55;90.94
46007;BME280;31738;50.188;8.524;2023-03-18T05:24:56;98388.22;;;10.55;90.87
46007;BME280;31738;50.188;8.524;2023-03-18T05:27:24;98392.78;;;10.55;90.75
46007;BME280;31738;50.188;8.524;2023-03-18T05:29:58;98393.03;;;10.53;91.01
46007;BME280;31738;50.188;8.524;2023-03-18T05:32:38;98390.09;;;10.55;90.89
46007;BME280;31738;50.188;8.524;2023-03-18T05:35:06;98385.00;;;10.53;91.01
46007;BME280;31738;50.188;8.524;2023-03-18T05:37:41;98383.41;;;10.52;90.98
46007;BME280;31738;50.188;8.524;2023-03-18T05:40:08;98377.47;;;10.55;91.60
46007;BME280;31738;50.188;8.524;2023-03-18T05:42:35;98372.13;;;10.55;91.29
46007;BME280;31738;50.188;8.524;2023-03-18T05:45:01;98378.28;;;10.56;91.28
46007;BME280;31738;50.188;8.524;2023-03-18T05:47:27;98375.31;;;10.57;91.35
46007;BME280;31738;50.188;8.524;2023-03-18T05:50:01;98384.47;;;10.56;91.57
46007;BME280;31738;50.188;8.524;2023-03-18T05:52:27;98382.84;;;10.55;91.31
46007;BME280;31738;50.188;8.524;2023-03-18T05:54:56;98384.75;;;10.55;91.41
46007;BME280;31738;50.188;8.524;2023-03-18T05:57:26;98391.97;;;10.54;91.33
46007;BME280;31738;50.188;8.524;2023-03-18T05:59:57;98393.56;;;10.55;91.26
46007;BME280;31738;50.188;8.524;2023-03-18T06:02:24;98398.94;;;10.55;91.37
46007;BME280;31738;50.188;8.524;2023-03-18T06:04:53;98400.56;;;10.56;91.37
46007;BME280;31738;50.188;8.524;2023-03-18T06:07:19;98402.16;;;10.57;91.64
46007;BME280;31738;50.188;8.524;2023-03-18T06:09:45;98410.72;;;10.59;91.59
46007;BME280;31738;50.188;8.524;2023-03-18T06:12:10;98404.25;;;10.60;91.19
46007;BME280;31738;50.188;8.524;2023-03-18T06:14:36;98412.03;;;10.62;91.26
46007;BME280;31738;50.188;8.524;2023-03-18T06:17:03;98404.78;;;10.62;91.05
46007;BME280;31738;50.188;8.524;2023-03-18T06:19:29;98407.19;;;10.64;90.93
46007;BME280;31738;50.188;8.524;2023-03-18T06:21:56;98404.78;;;10.62;90.79
46007;BME280;31738;50.188;8.524;2023-03-18T06:24:23;98395.13;;;10.61;90.99
46007;BME280;31738;50.188;8.524;2023-03-18T06:26:48;98413.41;;;10.59;91.12
46007;BME280;31738;50.188;8.524;2023-03-18T06:29:14;98410.19;;;10.57;90.77
46007;BME280;31738;50.188;8.524;2023-03-18T06:31:40;98414.75;;;10.57;90.97
46007;BME280;31738;50.188;8.524;2023-03-18T06:34:08;98413.44;;;10.54;90.77
46007;BME280;31738;50.188;8.524;2023-03-18T06:36:36;98413.19;;;10.51;90.37
46007;BME280;31738;50.188;8.524;2023-03-18T06:39:06;98416.16;;;10.49;90.85
46007;BME280;31738;50.188;8.524;2023-03-18T06:41:35;98412.94;;;10.47;90.59
46007;BME280;31738;50.188;8.524;2023-03-18T06:44:21;98417.81;;;10.40;90.61
46007;BME280;31738;50.188;8.524;2023-03-18T06:46:46;98426.97;;;10.39;90.46
46007;BME280;31738;50.188;8.524;2023-03-18T06:49:13;98436.06;;;10.38;90.20
46007;BME280;31738;50.188;8.524;2023-03-18T06:51:45;98427.53;;;10.36;90.84
46007;BME280;31738;50.188;8.524;2023-03-18T06:54:13;98420.53;;;10.35;90.65
46007;BME280;31738;50.188;8.524;2023-03-18T06:56:40;98419.19;;;10.38;90.40
46007;BME280;31738;50.188;8.524;2023-03-18T06:59:14;98422.94;;;10.36;90.86
46007;BME280;31738;50.188;8.524;2023-03-18T07:01:40;98425.34;;;10.38;91.07
46007;BME280;31738;50.188;8.524;2023-03-18T07:04:06;98424.78;;;10.41;90.48
46007;BME280;31738;50.188;8.524;2023-03-18T07:06:33;98426.13;;;10.44;91.05
46007;BME280;31738;50.188;8.524;2023-03-18T07:08:58;98426.88;;;10.49;90.69
46007;BME280;31738;50.188;8.524;2023-03-18T07:11:26;98427.91;;;10.53;90.60
46007;BME280;31738;50.188;8.524;2023-03-18T07:13:52;98439.41;;;10.59;90.64
46007;BME280;31738;50.188;8.524;2023-03-18T07:16:25;98446.88;;;10.62;90.22
46007;BME280;31738;50.188;8.524;2023-03-18T07:18:50;98451.66;;;10.70;89.65
46007;BME280;31738;50.188;8.524;2023-03-18T07:21:22;98449.19;;;10.73;89.99
46007;BME280;31738;50.188;8.524;2023-03-18T07:23:52;98451.03;;;10.78;89.86
46007;BME280;31738;50.188;8.524;2023-03-18T07:26:19;98445.91;;;10.81;89.72
46007;BME280;31738;50.188;8.524;2023-03-18T07:28:46;98448.56;;;10.86;90.05
46007;BME280;31738;50.188;8.524;2023-03-18T07:31:11;98453.59;;;10.93;89.86
46007;BME280;31738;50.188;8.524;2023-03-18T07:33:37;98457.59;;;10.95;89.88
46007;BME280;31738;50.188;8.524;2023-03-18T07:36:02;98454.59;;;11.02;89.40
46007;BME280;31738;50.188;8.524;2023-03-18T07:38:28;98452.66;;;11.07;89.75
46007;BME280;31738;50.188;8.524;2023-03-18T07:40:54;98458.78;;;11.13;89.19
46007;BME280;31738;50.188;8.524;2023-03-18T07:43:20;98465.19;;;11.17;89.39
46007;BME280;31738;50.188;8.524;2023-03-18T07:45:46;98470.78;;;11.20;89.33
46007;BME280;31738;50.188;8.524;2023-03-18T07:48:13;98473.41;;;11.25;88.96
46007;BME280;31738;50.188;8.524;2023-03-18T07:50:39;98470.16;;;11.28;88.88
46007;BME280;31738;50.188;8.524;2023-03-18T07:53:05;98476.56;;;11.32;88.91
46007;BME280;31738;50.188;8.524;2023-03-18T07:55:31;98478.69;;;11.35;88.77
46007;BME280;31738;50.188;8.524;2023-03-18T07:57:57;98475.69;;;11.42;88.55
46007;BME280;31738;50.188;8.524;2023-03-18T08:00:22;98478.56;;;11.45;88.44
46007;BME280;31738;50.188;8.524;2023-03-18T08:02:48;98478.53;;;11.50;88.31
46007;BME280;31738;50.188;8.524;2023-03-18T08:05:14;98483.84;;;11.55;88.19
46007;BME280;31738;50.188;8.524;2023-03-18T08:07:40;98479.50;;;11.59;88.53
46007;BME280;31738;50.188;8.524;2023-03-18T08:10:06;98489.13;;;11.65;88.47
46007;BME280;31738;50.188;8.524;2023-03-18T08:12:33;98482.13;;;11.69;88.24
46007;BME280;31738;50.188;8.524;2023-03-18T08:14:58;98482.56;;;11.76;88.68
46007;BME280;31738;50.188;8.524;2023-03-18T08:17:24;98491.88;;;11.84;88.53
46007;BME280;31738;50.188;8.524;2023-03-18T08:19:49;98495.31;;;11.89;88.62
46007;BME280;31738;50.188;8.524;2023-03-18T08:22:15;98492.78;;;11.98;88.22
46007;BME280;31738;50.188;8.524;2023-03-18T08:24:41;98483.78;;;12.07;87.89
46007;BME280;31738;50.188;8.524;2023-03-18T08:27:07;98488.25;;;12.17;87.90
46007;BME280;31738;50.188;8.524;2023-03-18T08:29:34;98496.16;;;12.27;87.48
46007;BME280;31738;50.188;8.524;2023-03-18T08:31:59;98507.63;;;12.33;87.11
46007;BME280;31738;50.188;8.524;2023-03-18T08:34:25;98502.41;;;12.41;86.86
46007;BME280;31738;50.188;8.524;2023-03-18T08:36:51;98503.13;;;12.47;87.12
46007;BME280;31738;50.188;8.524;2023-03-18T08:39:16;98498.22;;;12.54;87.17
46007;BME280;31738;50.188;8.524;2023-03-18T08:41:42;98502.72;;;12.58;86.51
46007;BME280;31738;50.188;8.524;2023-03-18T08:44:07;98509.91;;;12.63;86.40
46007;BME280;31738;50.188;8.524;2023-03-18T08:46:36;98509.50;;;12.69;86.42
46007;BME280;31738;50.188;8.524;2023-03-18T08:49:02;98510.78;;;12.77;86.02
46007;BME280;31738;50.188;8.524;2023-03-18T08:51:27;98519.25;;;12.84;85.46
46007;BME280;31738;50.188;8.524;2023-03-18T08:53:53;98516.41;;;12.94;84.62
46007;BME280;31738;50.188;8.524;2023-03-18T08:56:19;98513.88;;;13.02;84.77
46007;BME280;31738;50.188;8.524;2023-03-18T08:58:45;98518.31;;;13.12;84.64
46007;BME280;31738;50.188;8.524;2023-03-18T09:01:13;98524.53;;;13.26;84.95
46007;BME280;31738;50.188;8.524;2023-03-18T09:03:38;98527.75;;;13.41;84.80
46007;BME280;31738;50.188;8.524;2023-03-18T09:06:05;98533.66;;;13.57;84.14
46007;BME280;31738;50.188;8.524;2023-03-18T09:08:37;98543.09;;;13.73;83.67
46007;BME280;31738;50.188;8.524;2023-03-18T09:11:04;98547.59;;;13.91;82.10
46007;BME280;31738;50.188;8.524;2023-03-18T09:13:35;98557.56;;;14.04;80.82
46007;BME280;31738;50.188;8.524;2023-03-18T09:16:03;98557.88;;;14.16;79.85
46007;BME280;31738;50.188;8.524;2023-03-18T09:18:29;98571.59;;;14.33;78.76
46007;BME280;31738;50.188;8.524;2023-03-18T09:20:54;98565.88;;;14.48;78.73
46007;BME280;31738;50.188;8.524;2023-03-18T09:23:20;98565.75;;;14.67;77.78
46007;BME280;31738;50.188;8.524;2023-03-18T09:25:46;98560.31;;;14.80;77.29
46007;BME280;31738;50.188;8.524;2023-03-18T09:28:15;98568.84;;;14.96;75.14
46007;BME280;31738;50.188;8.524;2023-03-18T09:30:41;98581.31;;;15.05;74.90
46007;BME280;31738;50.188;8.524;2023-03-18T09:33:07;98587.47;;;15.19;73.04
46007;BME280;31738;50.188;8.524;2023-03-18T09:35:33;98589.13;;;15.29;71.73
46007;BME280;31738;50.188;8.524;2023-03-18T09:37:59;98619.06;;;15.32;70.70
46007;BME280;31738;50.188;8.524;2023-03-18T09:40:27;98627.16;;;15.32;69.79
46007;BME280;31738;50.188;8.524;2023-03-18T09:45:58;98631.72;;;15.46;71.71
46007;BME280;31738;50.188;8.524;2023-03-18T09:48:53;98635.78;;;15.57;71.03
46007;BME280;31738;50.188;8.524;2023-03-18T09:54:09;98643.81;;;15.70;68.66
46007;BME280;31738;50.188;8.524;2023-03-18T09:56:40;98643.41;;;15.77;69.35
46007;BME280;31738;50.188;8.524;2023-03-18T10:01:37;98654.03;;;16.04;68.96
46007;BME280;31738;50.188;8.524;2023-03-18T10:04:09;98655.50;;;16.10;67.25
46007;BME280;31738;50.188;8.524;2023-03-18T10:06:38;98673.28;;;16.33;64.05
46007;BME280;31738;50.188;8.524;2023-03-18T10:09:27;98665.59;;;16.18;66.05
46007;BME280;31738;50.188;8.524;2023-03-18T10:12:04;98664.09;;;16.34;64.78
46007;BME280;31738;50.188;8.524;2023-03-18T10:14:36;98671.25;;;16.38;65.08
46007;BME280;31738;50.188;8.524;2023-03-18T10:17:33;98670.56;;;16.55;64.12
46007;BME280;31738;50.188;8.524;2023-03-18T10:20:02;98676.63;;;16.60;63.66
46007;BME280;31738;50.188;8.524;2023-03-18T10:25:18;98671.00;;;16.96;62.13
46007;BME280;31738;50.188;8.524;2023-03-18T10:27:58;98674.50;;;17.05;62.43
46007;BME280;31738;50.188;8.524;2023-03-18T10:30:29;98675.50;;;17.09;62.34
46007;BME280;31738;50.188;8.524;2023-03-18T10:33:08;98672.31;;;17.24;63.41
46007;BME280;31738;50.188;8.524;2023-03-18T10:39:17;98674.44;;;17.44;63.22
46007;BME280;31738;50.188;8.524;2023-03-18T10:41:47;98675.22;;;17.53;61.76
46007;BME280;31738;50.188;8.524;2023-03-18T10:44:23;98682.56;;;17.61;61.71
46007;BME280;31738;50.188;8.524;2023-03-18T10:49:38;98686.06;;;17.87;61.84
46007;BME280;31738;50.188;8.524;2023-03-18T10:52:18;98673.56;;;18.03;61.07
46007;BME280;31738;50.188;8.524;2023-03-18T10:54:45;98684.56;;;18.07;60.47
46007;BME280;31738;50.188;8.524;2023-03-18T10:57:15;98678.97;;;18.12;59.25
46007;BME280;31738;50.188;8.524;2023-03-18T10:59:42;98689.97;;;18.15;58.80
46007;BME280;31738;50.188;8.524;2023-03-18T11:02:31;98685.19;;;18.21;59.83
46007;BME280;31738;50.188;8.524;2023-03-18T11:08:03;98688.78;;;18.33;60.70
46007;BME280;31738;50.188;8.524;2023-03-18T11:10:38;98696.16;;;18.33;58.82
46007;BME280;31738;50.188;8.524;2023-03-18T11:13:15;98684.97;;;18.34;58.47
46007;BME280;31738;50.188;8.524;2023-03-18T11:15:48;98694.06;;;18.47;59.95
46007;BME280;31738;50.188;8.524;2023-03-18T11:18:21;98698.66;;;18.55;58.83
46007;BME280;31738;50.188;8.524;2023-03-18T11:20:58;98687.75;;;18.63;60.09
46007;BME280;31738;50.188;8.524;2023-03-18T11:23:33;98685.78;;;18.73;59.46
46007;BME280;31738;50.188;8.524;2023-03-18T11:26:20;98687.84;;;18.76;57.67
46007;BME280;31738;50.188;8.524;2023-03-18T11:28:45;98685.47;;;18.74;57.56
46007;BME280;31738;50.188;8.524;2023-03-18T11:31:16;98690.19;;;18.86;58.11
46007;BME280;31738;50.188;8.524;2023-03-18T11:33:42;98696.59;;;18.90;56.85
46007;BME280;31738;50.188;8.524;2023-03-18T11:36:15;98698.00;;;18.87;56.55
46007;BME280;31738;50.188;8.524;2023-03-18T11:38:43;98701.72;;;18.83;56.46
46007;BME280;31738;50.188;8.524;2023-03-18T11:41:17;98713.41;;;18.83;55.94
46007;BME280;31738;50.188;8.524;2023-03-18T11:46:29;98715.03;;;19.05;55.69
46007;BME280;31738;50.188;8.524;2023-03-18T11:48:56;98708.94;;;19.08;54.97
46007;BME280;31738;50.188;8.524;2023-03-18T12:00:27;98712.22;;;18.93;55.02
46007;BME280;31738;50.188;8.524;2023-03-18T12:05:37;98717.38;;;18.86;55.83
46007;BME280;31738;50.188;8.524;2023-03-18T12:10:36;98714.66;;;18.86;54.46
46007;BME280;31738;50.188;8.524;2023-03-18T12:13:27;98706.97;;;18.88;55.27
46007;BME280;31738;50.188;8.524;2023-03-18T12:18:56;98697.91;;;18.84;55.35
46007;BME280;31738;50.188;8.524;2023-03-18T12:24:50;98696.94;;;18.80;55.87
46007;BME280;31738;50.188;8.524;2023-03-18T12:27:49;98696.66;;;18.73;55.09
46007;BME280;31738;50.188;8.524;2023-03-18T12:36:17;98701.66;;;18.62;54.23
46007;BME280;31738;50.188;8.524;2023-03-18T12:42:16;98691.88;;;18.69;54.46
46007;BME280;31738;50.188;8.524;2023-03-18T12:47:38;98701.03;;;18.65;54.23
46007;BME280;31738;50.188;8.524;2023-03-18T12:50:15;98691.72;;;18.66;55.00
46007;BME280;31738;50.188;8.524;2023-03-18T12:53:12;98678.56;;;18.77;54.99
46007;BME280;31738;50.188;8.524;2023-03-18T12:55:44;98672.47;;;18.80;54.81
46007;BME280;31738;50.188;8.524;2023-03-18T12:58:27;98678.28;;;18.99;55.10
46007;BME280;31738;50.188;8.524;2023-03-18T13:03:39;98686.53;;;19.11;51.86
46007;BME280;31738;50.188;8.524;2023-03-18T13:06:19;98677.00;;;19.25;53.24
46007;BME280;31738;50.188;8.524;2023-03-18T13:09:36;98685.59;;;19.36;52.36
46007;BME280;31738;50.188;8.524;2023-03-18T13:12:10;98684.53;;;19.20;52.53
46007;BME280;31738;50.188;8.524;2023-03-18T13:14:47;98682.00;;;19.15;52.95
46007;BME280;31738;50.188;8.524;2023-03-18T13:17:29;98677.63;;;19.02;53.52
46007;BME280;31738;50.188;8.524;2023-03-18T13:20:10;98662.72;;;19.08;53.85
46007;BME280;31738;50.188;8.524;2023-03-18T13:33:46;98694.47;;;18.95;51.66
46007;BME280;31738;50.188;8.524;2023-03-18T13:39:48;98697.66;;;18.97;51.03
46007;BME280;31738;50.188;8.524;2023-03-18T13:42:26;98687.94;;;18.88;51.28
46007;BME280;31738;50.188;8.524;2023-03-18T13:45:09;98692.47;;;18.84;51.33
46007;BME280;31738;50.188;8.524;2023-03-18T13:47:39;98695.09;;;18.72;51.03
46007;BME280;31738;50.188;8.524;2023-03-18T13:50:24;98683.56;;;18.75;52.13
46007;BME280;31738;50.188;8.524;2023-03-18T13:52:55;98683.41;;;18.71;51.57
46007;BME280;31738;50.188;8.524;2023-03-18T13:55:39;98685.94;;;18.76;51.98
46007;BME280;31738;50.188;8.524;2023-03-18T13:58:18;98682.41;;;18.76;52.37
46007;BME280;31738;50.188;8.524;2023-03-18T14:06:18;98685.94;;;18.76;52.11
46007;BME280;31738;50.188;8.524;2023-03-18T14:08:48;98675.06;;;18.76;52.66
46007;BME280;31738;50.188;8.524;2023-03-18T14:16:17;98672.56;;;18.92;52.26
46007;BME280;31738;50.188;8.524;2023-03-18T14:19:05;98667.41;;;18.99;51.89
46007;BME280;31738;50.188;8.524;2023-03-18T14:21:43;98682.00;;;18.94;51.78
46007;BME280;31738;50.188;8.524;2023-03-18T14:26:46;98677.56;;;18.90;51.11
46007;BME280;31738;50.188;8.524;2023-03-18T14:29:37;98670.31;;;18.94;52.14
46007;BME280;31738;50.188;8.524;2023-03-18T14:32:04;98677.06;;;18.88;51.75
46007;BME280;31738;50.188;8.524;2023-03-18T14:34:56;98670.31;;;18.94;51.46
46007;BME280;31738;50.188;8.524;2023-03-18T14:37:31;98676.16;;;18.84;50.64
46007;BME280;31738;50.188;8.524;2023-03-18T14:40:01;98676.94;;;18.84;51.02
46007;BME280;31738;50.188;8.524;2023-03-18T14:42:35;98675.34;;;18.83;50.81
46007;BME280;31738;50.188;8.524;2023-03-18T14:45:14;98671.88;;;18.74;51.21
46007;BME280;31738;50.188;8.524;2023-03-18T14:47:51;98670.81;;;18.66;51.11
46007;BME280;31738;50.188;8.524;2023-03-18T14:52:57;98668.97;;;18.50;51.51